sensor_id;sensor_type;location;lat;lon;timestamp;P1;durP1;ratioP1;P2;durP2;ratioP2
65477;SDS011;53678;39.642;22.430;2022-08-21T00:02:17;8.90;;;6.40;;
65477;SDS011;53678;39.642;22.430;2022-08-21T00:04:45;9.30;;;6.50;;
65477;SDS011;53678;39.642;22.430;2022-08-21T00:07:11;11.88;;;7.00;;
65477;SDS011;53678;39.642;22.430;2022-08-21T00:09:37;13.35;;;7.03;;
65477;SDS011;53678;39.642;22.430;2022-08-21T00:12:04;10.90;;;6.60;;
65477;SDS011;53678;39.642;22.430;2022-08-21T00:14:31;13.48;;;6.72;;
65477;SDS011;53678;39.642;22.430;2022-08-21T00:16:57;14.43;;;6.70;;
65477;SDS011;53678;39.642;22.430;2022-08-21T00:19:23;12.55;;;7.22;;
65477;SDS011;53678;39.642;22.430;2022-08-21T00:21:53;11.70;;;6.35;;
65477;SDS011;53678;39.642;22.430;2022-08-21T00:24:20;11.50;;;6.68;;
65477;SDS011;53678;39.642;22.430;2022-08-21T00:26:47;9.82;;;6.50;;
65477;SDS011;53678;39.642;22.430;2022-08-21T00:29:14;13.88;;;6.25;;
65477;SDS011;53678;39.642;22.430;2022-08-21T00:31:41;11.45;;;6.43;;
65477;SDS011;53678;39.642;22.430;2022-08-21T00:34:08;12.43;;;6.80;;
65477;SDS011;53678;39.642;22.430;2022-08-21T00:36:34;14.13;;;6.53;;
65477;SDS011;53678;39.642;22.430;2022-08-21T00:39:03;13.57;;;6.82;;
65477;SDS011;53678;39.642;22.430;2022-08-21T00:41:32;10.23;;;6.20;;
65477;SDS011;53678;39.642;22.430;2022-08-21T00:44:00;9.35;;;6.03;;
65477;SDS011;53678;39.642;22.430;2022-08-21T00:46:26;9.63;;;6.10;;
65477;SDS011;53678;39.642;22.430;2022-08-21T00:48:52;9.88;;;6.40;;
65477;SDS011;53678;39.642;22.430;2022-08-21T00:51:20;14.23;;;6.38;;
65477;SDS011;53678;39.642;22.430;2022-08-21T00:53:52;9.23;;;6.60;;
65477;SDS011;53678;39.642;22.430;2022-08-21T00:56:21;14.50;;;6.57;;
65477;SDS011;53678;39.642;22.430;2022-08-21T00:58:49;9.80;;;5.93;;
65477;SDS011;53678;39.642;22.430;2022-08-21T01:01:17;12.23;;;6.80;;
65477;SDS011;53678;39.642;22.430;2022-08-21T01:03:43;14.55;;;6.40;;
65477;SDS011;53678;39.642;22.430;2022-08-21T01:06:09;12.45;;;5.93;;
65477;SDS011;53678;39.642;22.430;2022-08-21T01:08:35;9.68;;;5.90;;
65477;SDS011;53678;39.642;22.430;2022-08-21T01:11:01;11.95;;;6.15;;
65477;SDS011;53678;39.642;22.430;2022-08-21T01:13:28;8.10;;;5.90;;
65477;SDS011;53678;39.642;22.430;2022-08-21T01:15:58;13.23;;;6.18;;
65477;SDS011;53678;39.642;22.430;2022-08-21T01:18:26;9.15;;;6.20;;
65477;SDS011;53678;39.642;22.430;2022-08-21T01:21:35;8.52;;;5.55;;
65477;SDS011;53678;39.642;22.430;2022-08-21T01:23:48;9.40;;;5.75;;
65477;SDS011;53678;39.642;22.430;2022-08-21T01:26:16;12.48;;;6.25;;
65477;SDS011;53678;39.642;22.430;2022-08-21T01:28:49;12.05;;;6.10;;
65477;SDS011;53678;39.642;22.430;2022-08-21T01:31:21;10.02;;;6.43;;
65477;SDS011;53678;39.642;22.430;2022-08-21T01:33:49;7.88;;;5.97;;
65477;SDS011;53678;39.642;22.430;2022-08-21T01:36:15;12.40;;;6.07;;
65477;SDS011;53678;39.642;22.430;2022-08-21T01:38:40;9.82;;;6.13;;
65477;SDS011;53678;39.642;22.430;2022-08-21T01:41:07;10.27;;;5.97;;
65477;SDS011;53678;39.642;22.430;2022-08-21T01:43:32;8.45;;;5.60;;
65477;SDS011;53678;39.642;22.430;2022-08-21T01:45:58;14.13;;;5.97;;
65477;SDS011;53678;39.642;22.430;2022-08-21T01:48:24;10.30;;;5.75;;
65477;SDS011;53678;39.642;22.430;2022-08-21T01:50:50;8.40;;;5.15;;
65477;SDS011;53678;39.642;22.430;2022-08-21T01:53:16;12.02;;;6.75;;
65477;SDS011;53678;39.642;22.430;2022-08-21T01:55:42;12.43;;;5.70;;
65477;SDS011;53678;39.642;22.430;2022-08-21T01:58:09;10.98;;;6.00;;
65477;SDS011;53678;39.642;22.430;2022-08-21T02:00:35;8.23;;;5.80;;
65477;SDS011;53678;39.642;22.430;2022-08-21T02:03:00;13.57;;;6.88;;
65477;SDS011;53678;39.642;22.430;2022-08-21T02:05:27;10.35;;;6.68;;
65477;SDS011;53678;39.642;22.430;2022-08-21T02:07:53;9.18;;;6.45;;
65477;SDS011;53678;39.642;22.430;2022-08-21T02:10:25;12.88;;;6.32;;
65477;SDS011;53678;39.642;22.430;2022-08-21T02:12:53;9.80;;;6.45;;
65477;SDS011;53678;39.642;22.430;2022-08-21T02:15:20;12.10;;;6.53;;
65477;SDS011;53678;39.642;22.430;2022-08-21T02:17:51;9.57;;;6.70;;
65477;SDS011;53678;39.642;22.430;2022-08-21T02:20:26;11.93;;;7.32;;
65477;SDS011;53678;39.642;22.430;2022-08-21T02:22:55;16.60;;;7.13;;
65477;SDS011;53678;39.642;22.430;2022-08-21T02:25:22;21.15;;;8.70;;
65477;SDS011;53678;39.642;22.430;2022-08-21T02:27:49;14.10;;;7.55;;
65477;SDS011;53678;39.642;22.430;2022-08-21T02:30:20;11.23;;;7.43;;
65477;SDS011;53678;39.642;22.430;2022-08-21T02:32:48;13.40;;;8.00;;
65477;SDS011;53678;39.642;22.430;2022-08-21T02:35:14;16.20;;;7.78;;
65477;SDS011;53678;39.642;22.430;2022-08-21T02:37:45;10.80;;;7.50;;
65477;SDS011;53678;39.642;22.430;2022-08-21T02:40:15;12.45;;;7.60;;
65477;SDS011;53678;39.642;22.430;2022-08-21T02:42:43;19.23;;;7.57;;
65477;SDS011;53678;39.642;22.430;2022-08-21T02:45:09;16.70;;;7.82;;
65477;SDS011;53678;39.642;22.430;2022-08-21T02:47:36;11.20;;;7.38;;
65477;SDS011;53678;39.642;22.430;2022-08-21T02:50:03;12.05;;;6.78;;
65477;SDS011;53678;39.642;22.430;2022-08-21T02:52:29;13.85;;;7.13;;
65477;SDS011;53678;39.642;22.430;2022-08-21T02:54:55;13.25;;;6.97;;
65477;SDS011;53678;39.642;22.430;2022-08-21T02:57:21;11.32;;;7.60;;
65477;SDS011;53678;39.642;22.430;2022-08-21T02:59:47;8.50;;;6.55;;
65477;SDS011;53678;39.642;22.430;2022-08-21T03:02:13;12.32;;;7.72;;
65477;SDS011;53678;39.642;22.430;2022-08-21T03:04:39;12.55;;;7.03;;
65477;SDS011;53678;39.642;22.430;2022-08-21T03:07:04;13.13;;;7.28;;
65477;SDS011;53678;39.642;22.430;2022-08-21T03:09:30;14.27;;;7.45;;
65477;SDS011;53678;39.642;22.430;2022-08-21T03:11:56;13.00;;;6.82;;
65477;SDS011;53678;39.642;22.430;2022-08-21T03:14:22;10.13;;;6.75;;
65477;SDS011;53678;39.642;22.430;2022-08-21T03:16:48;14.00;;;6.65;;
65477;SDS011;53678;39.642;22.430;2022-08-21T03:19:15;11.27;;;6.22;;
65477;SDS011;53678;39.642;22.430;2022-08-21T03:21:41;9.20;;;6.40;;
65477;SDS011;53678;39.642;22.430;2022-08-21T03:24:06;8.50;;;6.55;;
65477;SDS011;53678;39.642;22.430;2022-08-21T03:26:33;11.15;;;6.55;;
65477;SDS011;53678;39.642;22.430;2022-08-21T03:28:59;10.95;;;6.70;;
65477;SDS011;53678;39.642;22.430;2022-08-21T03:31:25;13.52;;;6.88;;
65477;SDS011;53678;39.642;22.430;2022-08-21T03:33:56;10.10;;;6.05;;
65477;SDS011;53678;39.642;22.430;2022-08-21T03:36:22;10.02;;;6.18;;
65477;SDS011;53678;39.642;22.430;2022-08-21T03:38:49;8.93;;;6.90;;
65477;SDS011;53678;39.642;22.430;2022-08-21T03:41:15;9.68;;;6.18;;
65477;SDS011;53678;39.642;22.430;2022-08-21T03:43:41;11.02;;;6.18;;
65477;SDS011;53678;39.642;22.430;2022-08-21T03:46:06;13.50;;;6.72;;
65477;SDS011;53678;39.642;22.430;2022-08-21T03:48:33;8.93;;;5.80;;
65477;SDS011;53678;39.642;22.430;2022-08-21T03:51:00;13.88;;;6.13;;
65477;SDS011;53678;39.642;22.430;2022-08-21T03:53:26;8.68;;;6.05;;
65477;SDS011;53678;39.642;22.430;2022-08-21T03:55:52;8.82;;;6.20;;
65477;SDS011;53678;39.642;22.430;2022-08-21T03:58:20;8.20;;;6.07;;
65477;SDS011;53678;39.642;22.430;2022-08-21T04:00:49;7.47;;;6.22;;
65477;SDS011;53678;39.642;22.430;2022-08-21T04:03:17;13.30;;;6.70;;
65477;SDS011;53678;39.642;22.430;2022-08-21T04:05:43;11.23;;;6.53;;
65477;SDS011;53678;39.642;22.430;2022-08-21T04:08:11;11.23;;;6.53;;
65477;SDS011;53678;39.642;22.430;2022-08-21T04:10:38;9.95;;;6.55;;
65477;SDS011;53678;39.642;22.430;2022-08-21T04:13:05;9.15;;;6.38;;
65477;SDS011;53678;39.642;22.430;2022-08-21T04:15:32;10.43;;;5.97;;
65477;SDS011;53678;39.642;22.430;2022-08-21T04:17:59;11.05;;;6.55;;
65477;SDS011;53678;39.642;22.430;2022-08-21T04:20:25;12.20;;;6.40;;
65477;SDS011;53678;39.642;22.430;2022-08-21T04:22:52;7.70;;;5.53;;
65477;SDS011;53678;39.642;22.430;2022-08-21T04:25:18;8.63;;;6.53;;
65477;SDS011;53678;39.642;22.430;2022-08-21T04:27:47;13.75;;;7.00;;
65477;SDS011;53678;39.642;22.430;2022-08-21T04:30:14;14.85;;;8.07;;
65477;SDS011;53678;39.642;22.430;2022-08-21T04:32:45;17.33;;;7.57;;
65477;SDS011;53678;39.642;22.430;2022-08-21T04:35:13;17.40;;;6.88;;
65477;SDS011;53678;39.642;22.430;2022-08-21T04:37:39;16.05;;;7.30;;
65477;SDS011;53678;39.642;22.430;2022-08-21T04:40:06;16.58;;;8.18;;
65477;SDS011;53678;39.642;22.430;2022-08-21T04:42:40;14.27;;;7.53;;
65477;SDS011;53678;39.642;22.430;2022-08-21T04:45:14;12.60;;;7.80;;
65477;SDS011;53678;39.642;22.430;2022-08-21T04:47:41;18.23;;;8.00;;
65477;SDS011;53678;39.642;22.430;2022-08-21T04:50:07;13.38;;;7.60;;
65477;SDS011;53678;39.642;22.430;2022-08-21T04:52:33;16.90;;;8.02;;
65477;SDS011;53678;39.642;22.430;2022-08-21T04:54:59;17.92;;;7.75;;
65477;SDS011;53678;39.642;22.430;2022-08-21T04:57:26;19.65;;;7.55;;
65477;SDS011;53678;39.642;22.430;2022-08-21T04:59:52;11.55;;;7.30;;
65477;SDS011;53678;39.642;22.430;2022-08-21T05:02:18;14.93;;;7.32;;
65477;SDS011;53678;39.642;22.430;2022-08-21T05:04:46;11.73;;;7.10;;
65477;SDS011;53678;39.642;22.430;2022-08-21T05:07:16;10.32;;;6.95;;
65477;SDS011;53678;39.642;22.430;2022-08-21T05:12:14;21.35;;;7.28;;
65477;SDS011;53678;39.642;22.430;2022-08-21T05:14:40;11.80;;;7.13;;
65477;SDS011;53678;39.642;22.430;2022-08-21T05:17:07;16.45;;;7.25;;
65477;SDS011;53678;39.642;22.430;2022-08-21T05:19:34;18.10;;;6.85;;
65477;SDS011;53678;39.642;22.430;2022-08-21T05:22:01;10.20;;;6.45;;
65477;SDS011;53678;39.642;22.430;2022-08-21T05:24:27;10.48;;;6.50;;
65477;SDS011;53678;39.642;22.430;2022-08-21T05:26:53;11.73;;;7.05;;
65477;SDS011;53678;39.642;22.430;2022-08-21T05:29:19;10.93;;;7.07;;
65477;SDS011;53678;39.642;22.430;2022-08-21T05:31:45;9.40;;;6.45;;
65477;SDS011;53678;39.642;22.430;2022-08-21T05:34:12;14.52;;;7.68;;
65477;SDS011;53678;39.642;22.430;2022-08-21T05:36:39;13.57;;;6.68;;
65477;SDS011;53678;39.642;22.430;2022-08-21T05:39:05;9.73;;;6.45;;
65477;SDS011;53678;39.642;22.430;2022-08-21T05:41:30;8.90;;;5.72;;
65477;SDS011;53678;39.642;22.430;2022-08-21T05:43:56;10.82;;;6.10;;
65477;SDS011;53678;39.642;22.430;2022-08-21T05:46:22;8.80;;;5.22;;
65477;SDS011;53678;39.642;22.430;2022-08-21T05:48:48;9.88;;;4.97;;
65477;SDS011;53678;39.642;22.430;2022-08-21T05:51:14;9.07;;;5.05;;
65477;SDS011;53678;39.642;22.430;2022-08-21T05:53:42;8.32;;;5.18;;
65477;SDS011;53678;39.642;22.430;2022-08-21T05:56:10;8.43;;;4.90;;
65477;SDS011;53678;39.642;22.430;2022-08-21T05:58:37;5.95;;;4.70;;
65477;SDS011;53678;39.642;22.430;2022-08-21T06:01:04;10.32;;;5.20;;
65477;SDS011;53678;39.642;22.430;2022-08-21T06:03:34;10.25;;;4.95;;
65477;SDS011;53678;39.642;22.430;2022-08-21T06:06:03;12.18;;;5.22;;
65477;SDS011;53678;39.642;22.430;2022-08-21T06:08:29;9.38;;;4.78;;
65477;SDS011;53678;39.642;22.430;2022-08-21T06:10:56;8.13;;;5.00;;
65477;SDS011;53678;39.642;22.430;2022-08-21T06:13:23;10.43;;;4.75;;
65477;SDS011;53678;39.642;22.430;2022-08-21T06:15:50;8.63;;;5.15;;
65477;SDS011;53678;39.642;22.430;2022-08-21T06:18:26;10.15;;;5.03;;
65477;SDS011;53678;39.642;22.430;2022-08-21T06:20:52;9.95;;;5.20;;
65477;SDS011;53678;39.642;22.430;2022-08-21T06:23:18;11.32;;;5.35;;
65477;SDS011;53678;39.642;22.430;2022-08-21T06:25:44;12.02;;;4.72;;
65477;SDS011;53678;39.642;22.430;2022-08-21T06:28:10;8.30;;;5.00;;
65477;SDS011;53678;39.642;22.430;2022-08-21T06:30:37;10.00;;;5.43;;
65477;SDS011;53678;39.642;22.430;2022-08-21T06:33:04;7.80;;;5.22;;
65477;SDS011;53678;39.642;22.430;2022-08-21T06:35:32;10.85;;;5.57;;
65477;SDS011;53678;39.642;22.430;2022-08-21T06:37:59;14.30;;;6.22;;
65477;SDS011;53678;39.642;22.430;2022-08-21T06:40:27;9.95;;;5.22;;
65477;SDS011;53678;39.642;22.430;2022-08-21T06:42:54;12.63;;;5.47;;
65477;SDS011;53678;39.642;22.430;2022-08-21T06:45:20;8.32;;;4.90;;
65477;SDS011;53678;39.642;22.430;2022-08-21T06:47:47;10.73;;;5.18;;
65477;SDS011;53678;39.642;22.430;2022-08-21T06:50:12;11.05;;;5.10;;
65477;SDS011;53678;39.642;22.430;2022-08-21T06:52:38;10.60;;;5.55;;
65477;SDS011;53678;39.642;22.430;2022-08-21T06:55:05;10.80;;;5.45;;
65477;SDS011;53678;39.642;22.430;2022-08-21T06:57:33;11.98;;;4.90;;
65477;SDS011;53678;39.642;22.430;2022-08-21T06:59:59;8.65;;;5.00;;
65477;SDS011;53678;39.642;22.430;2022-08-21T07:02:25;7.40;;;4.55;;
65477;SDS011;53678;39.642;22.430;2022-08-21T07:04:51;11.18;;;5.20;;
65477;SDS011;53678;39.642;22.430;2022-08-21T07:07:17;10.07;;;5.30;;
65477;SDS011;53678;39.642;22.430;2022-08-21T07:09:43;9.38;;;5.10;;
65477;SDS011;53678;39.642;22.430;2022-08-21T07:12:08;8.98;;;4.85;;
65477;SDS011;53678;39.642;22.430;2022-08-21T07:14:35;12.07;;;5.28;;
65477;SDS011;53678;39.642;22.430;2022-08-21T07:17:01;8.68;;;5.10;;
65477;SDS011;53678;39.642;22.430;2022-08-21T07:19:27;11.30;;;5.07;;
65477;SDS011;53678;39.642;22.430;2022-08-21T07:21:54;8.48;;;4.72;;
65477;SDS011;53678;39.642;22.430;2022-08-21T07:24:25;6.43;;;4.97;;
65477;SDS011;53678;39.642;22.430;2022-08-21T07:26:51;9.77;;;4.97;;
65477;SDS011;53678;39.642;22.430;2022-08-21T07:29:17;7.63;;;4.82;;
65477;SDS011;53678;39.642;22.430;2022-08-21T07:31:43;11.15;;;5.13;;
65477;SDS011;53678;39.642;22.430;2022-08-21T07:34:09;8.57;;;5.03;;
65477;SDS011;53678;39.642;22.430;2022-08-21T07:36:35;8.52;;;4.72;;
65477;SDS011;53678;39.642;22.430;2022-08-21T07:39:01;8.32;;;5.20;;
65477;SDS011;53678;39.642;22.430;2022-08-21T07:41:28;11.02;;;4.78;;
65477;SDS011;53678;39.642;22.430;2022-08-21T07:43:58;9.90;;;5.03;;
65477;SDS011;53678;39.642;22.430;2022-08-21T07:46:24;9.45;;;4.60;;
65477;SDS011;53678;39.642;22.430;2022-08-21T07:48:51;7.32;;;4.55;;
65477;SDS011;53678;39.642;22.430;2022-08-21T07:51:17;11.00;;;5.60;;
65477;SDS011;53678;39.642;22.430;2022-08-21T07:53:49;11.25;;;4.85;;
65477;SDS011;53678;39.642;22.430;2022-08-21T07:56:17;10.77;;;4.82;;
65477;SDS011;53678;39.642;22.430;2022-08-21T07:58:43;9.70;;;4.80;;
65477;SDS011;53678;39.642;22.430;2022-08-21T08:01:09;6.78;;;4.68;;
65477;SDS011;53678;39.642;22.430;2022-08-21T08:03:35;11.30;;;4.63;;
65477;SDS011;53678;39.642;22.430;2022-08-21T08:06:01;9.20;;;4.72;;
65477;SDS011;53678;39.642;22.430;2022-08-21T08:08:30;12.18;;;4.90;;
65477;SDS011;53678;39.642;22.430;2022-08-21T08:10:56;7.90;;;4.22;;
65477;SDS011;53678;39.642;22.430;2022-08-21T08:13:23;7.47;;;4.85;;
65477;SDS011;53678;39.642;22.430;2022-08-21T08:15:50;8.52;;;4.85;;
65477;SDS011;53678;39.642;22.430;2022-08-21T08:18:16;9.63;;;5.30;;
65477;SDS011;53678;39.642;22.430;2022-08-21T08:20:42;8.50;;;4.63;;
65477;SDS011;53678;39.642;22.430;2022-08-21T08:23:12;8.07;;;4.40;;
65477;SDS011;53678;39.642;22.430;2022-08-21T08:25:38;7.30;;;4.70;;
65477;SDS011;53678;39.642;22.430;2022-08-21T08:28:04;10.48;;;4.78;;
65477;SDS011;53678;39.642;22.430;2022-08-21T08:30:31;10.55;;;4.90;;
65477;SDS011;53678;39.642;22.430;2022-08-21T08:32:57;8.43;;;4.50;;
65477;SDS011;53678;39.642;22.430;2022-08-21T08:35:23;9.05;;;4.60;;
65477;SDS011;53678;39.642;22.430;2022-08-21T08:37:50;11.93;;;5.18;;
65477;SDS011;53678;39.642;22.430;2022-08-21T08:40:27;6.82;;;4.70;;
65477;SDS011;53678;39.642;22.430;2022-08-21T08:43:13;9.57;;;4.90;;
65477;SDS011;53678;39.642;22.430;2022-08-21T08:45:40;10.65;;;4.50;;
65477;SDS011;53678;39.642;22.430;2022-08-21T08:48:10;11.48;;;4.40;;
65477;SDS011;53678;39.642;22.430;2022-08-21T08:50:52;9.52;;;4.78;;
65477;SDS011;53678;39.642;22.430;2022-08-21T08:53:25;9.52;;;4.40;;
65477;SDS011;53678;39.642;22.430;2022-08-21T08:56:08;12.45;;;5.00;;
65477;SDS011;53678;39.642;22.430;2022-08-21T08:58:36;7.28;;;4.57;;
65477;SDS011;53678;39.642;22.430;2022-08-21T09:01:05;10.00;;;4.55;;
65477;SDS011;53678;39.642;22.430;2022-08-21T09:03:39;9.88;;;4.25;;
65477;SDS011;53678;39.642;22.430;2022-08-21T09:08:57;7.50;;;4.55;;
65477;SDS011;53678;39.642;22.430;2022-08-21T09:14:47;7.32;;;4.78;;
65477;SDS011;53678;39.642;22.430;2022-08-21T09:25:42;7.18;;;4.97;;
65477;SDS011;53678;39.642;22.430;2022-08-21T09:28:18;8.82;;;4.68;;
65477;SDS011;53678;39.642;22.430;2022-08-21T09:30:44;8.88;;;4.55;;
65477;SDS011;53678;39.642;22.430;2022-08-21T09:33:11;6.75;;;4.85;;
65477;SDS011;53678;39.642;22.430;2022-08-21T09:35:48;7.65;;;4.80;;
65477;SDS011;53678;39.642;22.430;2022-08-21T09:38:27;7.07;;;5.00;;
65477;SDS011;53678;39.642;22.430;2022-08-21T09:41:03;8.63;;;4.97;;
65477;SDS011;53678;39.642;22.430;2022-08-21T09:43:32;11.50;;;4.40;;
65477;SDS011;53678;39.642;22.430;2022-08-21T09:46:49;7.10;;;4.82;;
65477;SDS011;53678;39.642;22.430;2022-08-21T09:48:50;7.18;;;4.35;;
65477;SDS011;53678;39.642;22.430;2022-08-21T09:51:20;9.60;;;4.97;;
65477;SDS011;53678;39.642;22.430;2022-08-21T09:53:52;10.25;;;5.28;;
65477;SDS011;53678;39.642;22.430;2022-08-21T09:56:35;8.93;;;4.88;;
65477;SDS011;53678;39.642;22.430;2022-08-21T09:59:35;8.25;;;4.72;;
65477;SDS011;53678;39.642;22.430;2022-08-21T10:02:47;11.45;;;4.80;;
65477;SDS011;53678;39.642;22.430;2022-08-21T10:04:55;8.65;;;4.90;;
65477;SDS011;53678;39.642;22.430;2022-08-21T10:07:23;10.38;;;5.28;;
65477;SDS011;53678;39.642;22.430;2022-08-21T10:09:58;11.30;;;4.95;;
65477;SDS011;53678;39.642;22.430;2022-08-21T10:12:28;10.38;;;4.78;;
65477;SDS011;53678;39.642;22.430;2022-08-21T10:17:52;6.35;;;5.40;;
65477;SDS011;53678;39.642;22.430;2022-08-21T10:20:34;6.82;;;5.20;;
65477;SDS011;53678;39.642;22.430;2022-08-21T10:26:40;7.45;;;4.97;;
65477;SDS011;53678;39.642;22.430;2022-08-21T10:34:56;8.20;;;4.70;;
65477;SDS011;53678;39.642;22.430;2022-08-21T10:45:36;7.60;;;5.43;;
65477;SDS011;53678;39.642;22.430;2022-08-21T10:48:35;8.32;;;5.47;;
65477;SDS011;53678;39.642;22.430;2022-08-21T10:59:40;9.98;;;6.63;;
65477;SDS011;53678;39.642;22.430;2022-08-21T11:05:30;13.43;;;5.95;;
65477;SDS011;53678;39.642;22.430;2022-08-21T11:08:10;9.77;;;5.18;;
65477;SDS011;53678;39.642;22.430;2022-08-21T11:10:48;7.75;;;4.75;;
65477;SDS011;53678;39.642;22.430;2022-08-21T11:21:36;11.70;;;6.68;;
65477;SDS011;53678;39.642;22.430;2022-08-21T11:26:51;7.50;;;5.15;;
65477;SDS011;53678;39.642;22.430;2022-08-21T11:29:28;11.13;;;5.82;;
65477;SDS011;53678;39.642;22.430;2022-08-21T11:45:57;10.23;;;6.57;;
65477;SDS011;53678;39.642;22.430;2022-08-21T11:48:40;10.50;;;5.70;;
65477;SDS011;53678;39.642;22.430;2022-08-21T11:51:19;6.68;;;5.22;;
65477;SDS011;53678;39.642;22.430;2022-08-21T11:54:02;12.00;;;6.25;;
65477;SDS011;53678;39.642;22.430;2022-08-21T11:56:37;9.90;;;5.18;;
65477;SDS011;53678;39.642;22.430;2022-08-21T11:59:13;9.85;;;5.40;;
65477;SDS011;53678;39.642;22.430;2022-08-21T12:01:46;6.85;;;5.07;;
65477;SDS011;53678;39.642;22.430;2022-08-21T12:04:34;10.43;;;5.75;;
65477;SDS011;53678;39.642;22.430;2022-08-21T12:07:28;8.18;;;5.28;;
65477;SDS011;53678;39.642;22.430;2022-08-21T12:09:58;9.73;;;4.60;;
65477;SDS011;53678;39.642;22.430;2022-08-21T12:12:29;7.43;;;5.45;;
65477;SDS011;53678;39.642;22.430;2022-08-21T12:23:27;10.68;;;5.50;;
65477;SDS011;53678;39.642;22.430;2022-08-21T12:28:25;7.88;;;5.40;;
65477;SDS011;53678;39.642;22.430;2022-08-21T12:30:52;10.43;;;5.93;;
65477;SDS011;53678;39.642;22.430;2022-08-21T12:33:39;8.57;;;5.28;;
65477;SDS011;53678;39.642;22.430;2022-08-21T12:36:07;11.52;;;5.70;;
65477;SDS011;53678;39.642;22.430;2022-08-21T12:38:56;10.70;;;5.55;;
65477;SDS011;53678;39.642;22.430;2022-08-21T12:41:32;7.78;;;5.13;;
65477;SDS011;53678;39.642;22.430;2022-08-21T12:44:05;8.93;;;5.20;;
65477;SDS011;53678;39.642;22.430;2022-08-21T12:46:39;8.07;;;5.57;;
65477;SDS011;53678;39.642;22.430;2022-08-21T12:49:19;5.45;;;4.93;;
65477;SDS011;53678;39.642;22.430;2022-08-21T12:54:43;6.32;;;5.22;;
65477;SDS011;53678;39.642;22.430;2022-08-21T12:57:17;8.52;;;5.88;;
65477;SDS011;53678;39.642;22.430;2022-08-21T12:59:45;8.05;;;5.22;;
65477;SDS011;53678;39.642;22.430;2022-08-21T13:02:15;9.30;;;5.45;;
65477;SDS011;53678;39.642;22.430;2022-08-21T13:04:43;9.10;;;5.50;;
65477;SDS011;53678;39.642;22.430;2022-08-21T13:07:11;11.75;;;5.78;;
65477;SDS011;53678;39.642;22.430;2022-08-21T13:09:48;9.10;;;5.38;;
65477;SDS011;53678;39.642;22.430;2022-08-21T13:12:16;10.00;;;5.85;;
65477;SDS011;53678;39.642;22.430;2022-08-21T13:14:45;12.65;;;5.40;;
65477;SDS011;53678;39.642;22.430;2022-08-21T13:17:13;8.00;;;4.88;;
65477;SDS011;53678;39.642;22.430;2022-08-21T13:19:51;11.05;;;5.65;;
65477;SDS011;53678;39.642;22.430;2022-08-21T13:22:30;11.15;;;5.80;;
65477;SDS011;53678;39.642;22.430;2022-08-21T13:24:56;7.55;;;5.55;;
65477;SDS011;53678;39.642;22.430;2022-08-21T13:32:33;7.75;;;5.28;;
65477;SDS011;53678;39.642;22.430;2022-08-21T13:35:10;9.20;;;5.07;;
65477;SDS011;53678;39.642;22.430;2022-08-21T13:37:44;12.13;;;5.32;;
65477;SDS011;53678;39.642;22.430;2022-08-21T13:40:14;10.65;;;5.80;;
65477;SDS011;53678;39.642;22.430;2022-08-21T13:42:43;10.80;;;5.68;;
65477;SDS011;53678;39.642;22.430;2022-08-21T13:45:12;10.27;;;5.30;;
65477;SDS011;53678;39.642;22.430;2022-08-21T13:47:49;9.23;;;5.90;;
65477;SDS011;53678;39.642;22.430;2022-08-21T13:50:17;12.07;;;6.20;;
65477;SDS011;53678;39.642;22.430;2022-08-21T13:53:04;13.88;;;5.47;;
65477;SDS011;53678;39.642;22.430;2022-08-21T13:55:37;9.02;;;5.18;;
65477;SDS011;53678;39.642;22.430;2022-08-21T13:58:08;7.53;;;5.30;;
65477;SDS011;53678;39.642;22.430;2022-08-21T14:00:47;7.05;;;5.63;;
65477;SDS011;53678;39.642;22.430;2022-08-21T14:03:23;8.07;;;5.70;;
65477;SDS011;53678;39.642;22.430;2022-08-21T14:05:57;13.32;;;5.88;;
65477;SDS011;53678;39.642;22.430;2022-08-21T14:08:34;12.02;;;5.88;;
65477;SDS011;53678;39.642;22.430;2022-08-21T14:11:03;9.13;;;5.90;;
65477;SDS011;53678;39.642;22.430;2022-08-21T14:13:36;11.30;;;6.03;;
65477;SDS011;53678;39.642;22.430;2022-08-21T14:16:16;8.65;;;5.50;;
65477;SDS011;53678;39.642;22.430;2022-08-21T14:19:08;8.10;;;5.80;;
65477;SDS011;53678;39.642;22.430;2022-08-21T14:21:38;10.45;;;5.72;;
65477;SDS011;53678;39.642;22.430;2022-08-21T14:24:12;9.57;;;5.78;;
65477;SDS011;53678;39.642;22.430;2022-08-21T14:26:44;10.52;;;5.50;;
65477;SDS011;53678;39.642;22.430;2022-08-21T14:29:15;9.07;;;6.00;;
65477;SDS011;53678;39.642;22.430;2022-08-21T14:31:42;9.30;;;5.85;;
65477;SDS011;53678;39.642;22.430;2022-08-21T14:34:14;8.13;;;5.32;;
65477;SDS011;53678;39.642;22.430;2022-08-21T14:36:42;8.77;;;6.07;;
65477;SDS011;53678;39.642;22.430;2022-08-21T14:39:09;13.18;;;6.30;;
65477;SDS011;53678;39.642;22.430;2022-08-21T14:41:35;10.45;;;6.18;;
65477;SDS011;53678;39.642;22.430;2022-08-21T14:44:02;9.02;;;5.95;;
65477;SDS011;53678;39.642;22.430;2022-08-21T14:46:29;13.20;;;6.85;;
65477;SDS011;53678;39.642;22.430;2022-08-21T14:48:55;11.15;;;5.55;;
65477;SDS011;53678;39.642;22.430;2022-08-21T14:51:21;9.75;;;5.53;;
65477;SDS011;53678;39.642;22.430;2022-08-21T14:53:47;10.13;;;6.32;;
65477;SDS011;53678;39.642;22.430;2022-08-21T14:56:13;16.15;;;6.15;;
65477;SDS011;53678;39.642;22.430;2022-08-21T14:58:45;10.68;;;5.60;;
65477;SDS011;53678;39.642;22.430;2022-08-21T15:01:14;11.55;;;5.63;;
65477;SDS011;53678;39.642;22.430;2022-08-21T15:03:43;9.25;;;5.65;;
65477;SDS011;53678;39.642;22.430;2022-08-21T15:06:10;9.57;;;5.65;;
65477;SDS011;53678;39.642;22.430;2022-08-21T15:08:36;11.48;;;5.68;;
65477;SDS011;53678;39.642;22.430;2022-08-21T15:11:02;10.30;;;6.13;;
65477;SDS011;53678;39.642;22.430;2022-08-21T15:13:30;11.45;;;5.72;;
65477;SDS011;53678;39.642;22.430;2022-08-21T15:15:56;10.27;;;5.90;;
65477;SDS011;53678;39.642;22.430;2022-08-21T15:18:23;9.65;;;6.22;;
65477;SDS011;53678;39.642;22.430;2022-08-21T15:20:53;13.13;;;6.55;;
65477;SDS011;53678;39.642;22.430;2022-08-21T15:23:19;11.32;;;5.95;;
65477;SDS011;53678;39.642;22.430;2022-08-21T15:25:46;9.77;;;6.00;;
65477;SDS011;53678;39.642;22.430;2022-08-21T15:28:13;8.25;;;5.97;;
65477;SDS011;53678;39.642;22.430;2022-08-21T15:30:42;8.77;;;6.03;;
65477;SDS011;53678;39.642;22.430;2022-08-21T15:33:09;7.90;;;5.75;;
65477;SDS011;53678;39.642;22.430;2022-08-21T15:35:35;12.65;;;6.22;;
65477;SDS011;53678;39.642;22.430;2022-08-21T15:38:02;9.38;;;6.32;;
65477;SDS011;53678;39.642;22.430;2022-08-21T15:40:28;12.57;;;6.53;;
65477;SDS011;53678;39.642;22.430;2022-08-21T15:42:56;11.38;;;6.40;;
65477;SDS011;53678;39.642;22.430;2022-08-21T15:45:24;12.90;;;6.25;;
65477;SDS011;53678;39.642;22.430;2022-08-21T15:47:50;8.18;;;5.65;;
65477;SDS011;53678;39.642;22.430;2022-08-21T15:50:16;12.10;;;6.20;;
65477;SDS011;53678;39.642;22.430;2022-08-21T15:52:42;10.50;;;6.45;;
65477;SDS011;53678;39.642;22.430;2022-08-21T15:55:08;7.35;;;5.65;;
65477;SDS011;53678;39.642;22.430;2022-08-21T15:57:36;11.52;;;6.03;;
65477;SDS011;53678;39.642;22.430;2022-08-21T16:00:11;21.70;;;6.77;;
65477;SDS011;53678;39.642;22.430;2022-08-21T16:02:42;12.90;;;6.57;;
65477;SDS011;53678;39.642;22.430;2022-08-21T16:05:11;8.30;;;5.53;;
65477;SDS011;53678;39.642;22.430;2022-08-21T16:07:38;9.52;;;6.07;;
65477;SDS011;53678;39.642;22.430;2022-08-21T16:10:05;17.00;;;6.47;;
65477;SDS011;53678;39.642;22.430;2022-08-21T16:12:32;9.98;;;5.53;;
65477;SDS011;53678;39.642;22.430;2022-08-21T16:15:03;9.27;;;6.43;;